sensor_id;sensor_type;location;lat;lon;timestamp;temperature;humidity
13231;DHT22;6681;53.254;10.398;2022-10-15T00:00:29;14.50;99.90
13231;DHT22;6681;53.254;10.398;2022-10-15T00:02:55;14.50;99.90
13231;DHT22;6681;53.254;10.398;2022-10-15T00:05:21;14.50;99.90
13231;DHT22;6681;53.254;10.398;2022-10-15T00:07:47;14.50;99.90
13231;DHT22;6681;53.254;10.398;2022-10-15T00:10:13;14.50;99.90
13231;DHT22;6681;53.254;10.398;2022-10-15T00:12:39;15.20;99.90
13231;DHT22;6681;53.254;10.398;2022-10-15T00:15:06;14.50;99.90
13231;DHT22;6681;53.254;10.398;2022-10-15T00:17:32;14.50;99.90
13231;DHT22;6681;53.254;10.398;2022-10-15T00:19:58;14.50;99.90
13231;DHT22;6681;53.254;10.398;2022-10-15T00:22:24;14.50;99.90
13231;DHT22;6681;53.254;10.398;2022-10-15T00:24:49;14.50;99.90
13231;DHT22;6681;53.254;10.398;2022-10-15T00:27:15;14.50;99.90
13231;DHT22;6681;53.254;10.398;2022-10-15T00:29:40;14.40;99.90
13231;DHT22;6681;53.254;10.398;2022-10-15T00:32:06;14.40;99.90
13231;DHT22;6681;53.254;10.398;2022-10-15T00:34:32;14.50;99.90
13231;DHT22;6681;53.254;10.398;2022-10-15T00:36:57;14.50;99.90
13231;DHT22;6681;53.254;10.398;2022-10-15T00:39:23;14.50;99.90
13231;DHT22;6681;53.254;10.398;2022-10-15T00:41:48;15.00;99.90
13231;DHT22;6681;53.254;10.398;2022-10-15T00:46:50;14.50;99.90
13231;DHT22;6681;53.254;10.398;2022-10-15T00:49:29;14.60;99.90
13231;DHT22;6681;53.254;10.398;2022-10-15T00:51:59;14.60;99.90
13231;DHT22;6681;53.254;10.398;2022-10-15T00:54:31;14.50;99.90
13231;DHT22;6681;53.254;10.398;2022-10-15T00:56:58;14.60;99.90
13231;DHT22;6681;53.254;10.398;2022-10-15T00:59:26;14.60;99.90
13231;DHT22;6681;53.254;10.398;2022-10-15T01:01:53;14.50;99.90
13231;DHT22;6681;53.254;10.398;2022-10-15T01:04:19;14.50;99.90
13231;DHT22;6681;53.254;10.398;2022-10-15T01:06:45;14.90;99.90
13231;DHT22;6681;53.254;10.398;2022-10-15T01:09:14;14.50;99.90
13231;DHT22;6681;53.254;10.398;2022-10-15T01:11:53;14.50;99.90
13231;DHT22;6681;53.254;10.398;2022-10-15T01:37:46;14.60;99.90
13231;DHT22;6681;53.254;10.398;2022-10-15T01:40:22;14.60;99.90
13231;DHT22;6681;53.254;10.398;2022-10-15T01:45:27;14.60;99.90
13231;DHT22;6681;53.254;10.398;2022-10-15T01:47:55;14.60;99.90
13231;DHT22;6681;53.254;10.398;2022-10-15T01:50:24;14.60;99.90
13231;DHT22;6681;53.254;10.398;2022-10-15T01:52:53;14.60;99.90
13231;DHT22;6681;53.254;10.398;2022-10-15T01:55:21;15.20;99.90
13231;DHT22;6681;53.254;10.398;2022-10-15T01:57:48;14.60;99.90
13231;DHT22;6681;53.254;10.398;2022-10-15T02:00:15;14.60;99.90
13231;DHT22;6681;53.254;10.398;2022-10-15T02:02:41;14.60;99.90
13231;DHT22;6681;53.254;10.398;2022-10-15T02:05:10;14.60;99.90
13231;DHT22;6681;53.254;10.398;2022-10-15T02:10:45;14.60;99.90
13231;DHT22;6681;53.254;10.398;2022-10-15T02:16:08;14.60;99.90
13231;DHT22;6681;53.254;10.398;2022-10-15T02:18:46;14.60;99.90
13231;DHT22;6681;53.254;10.398;2022-10-15T02:21:18;14.50;99.90
13231;DHT22;6681;53.254;10.398;2022-10-15T02:24:02;14.50;99.90
13231;DHT22;6681;53.254;10.398;2022-10-15T02:26:30;14.50;99.90
13231;DHT22;6681;53.254;10.398;2022-10-15T02:28:58;14.50;99.90
13231;DHT22;6681;53.254;10.398;2022-10-15T02:31:26;16.40;99.90
13231;DHT22;6681;53.254;10.398;2022-10-15T02:33:57;13.00;99.90
13231;DHT22;6681;53.254;10.398;2022-10-15T02:36:25;14.50;99.90
13231;DHT22;6681;53.254;10.398;2022-10-15T02:38:54;14.40;99.90
13231;DHT22;6681;53.254;10.398;2022-10-15T02:41:26;14.40;99.90
13231;DHT22;6681;53.254;10.398;2022-10-15T02:43:52;14.40;99.90
13231;DHT22;6681;53.254;10.398;2022-10-15T02:46:19;14.40;99.90
13231;DHT22;6681;53.254;10.398;2022-10-15T02:48:45;14.40;99.90
13231;DHT22;6681;53.254;10.398;2022-10-15T02:51:10;14.40;99.90
13231;DHT22;6681;53.254;10.398;2022-10-15T02:53:36;14.30;99.90
13231;DHT22;6681;53.254;10.398;2022-10-15T02:56:01;14.30;99.90
13231;DHT22;6681;53.254;10.398;2022-10-15T02:58:27;14.30;99.90
13231;DHT22;6681;53.254;10.398;2022-10-15T03:00:54;14.20;99.90
13231;DHT22;6681;53.254;10.398;2022-10-15T03:03:19;14.30;99.90
13231;DHT22;6681;53.254;10.398;2022-10-15T03:05:45;14.10;99.90
13231;DHT22;6681;53.254;10.398;2022-10-15T03:08:13;14.10;99.90
13231;DHT22;6681;53.254;10.398;2022-10-15T03:10:39;14.10;99.90
13231;DHT22;6681;53.254;10.398;2022-10-15T03:13:05;15.30;99.90
13231;DHT22;6681;53.254;10.398;2022-10-15T03:15:31;14.00;99.90
13231;DHT22;6681;53.254;10.398;2022-10-15T03:17:57;13.90;99.90
13231;DHT22;6681;53.254;10.398;2022-10-15T03:20:23;14.00;99.90
13231;DHT22;6681;53.254;10.398;2022-10-15T03:22:48;15.80;99.90
13231;DHT22;6681;53.254;10.398;2022-10-15T03:25:14;13.90;99.90
13231;DHT22;6681;53.254;10.398;2022-10-15T03:27:40;13.80;99.90
13231;DHT22;6681;53.254;10.398;2022-10-15T03:30:06;13.80;99.90
13231;DHT22;6681;53.254;10.398;2022-10-15T03:32:32;13.80;99.90
13231;DHT22;6681;53.254;10.398;2022-10-15T03:34:57;13.70;99.90
13231;DHT22;6681;53.254;10.398;2022-10-15T03:37:23;13.70;99.90
13231;DHT22;6681;53.254;10.398;2022-10-15T03:39:49;13.70;99.90
13231;DHT22;6681;53.254;10.398;2022-10-15T03:42:14;13.10;99.90
13231;DHT22;6681;53.254;10.398;2022-10-15T03:44:40;13.70;99.90
13231;DHT22;6681;53.254;10.398;2022-10-15T03:47:06;13.60;99.90
13231;DHT22;6681;53.254;10.398;2022-10-15T03:49:32;13.50;99.90
13231;DHT22;6681;53.254;10.398;2022-10-15T03:51:57;13.50;99.90
13231;DHT22;6681;53.254;10.398;2022-10-15T03:54:23;13.60;99.90
13231;DHT22;6681;53.254;10.398;2022-10-15T03:56:49;13.40;99.90
13231;DHT22;6681;53.254;10.398;2022-10-15T03:59:14;13.40;99.90
13231;DHT22;6681;53.254;10.398;2022-10-15T04:01:41;13.40;99.90
13231;DHT22;6681;53.254;10.398;2022-10-15T04:04:07;13.60;99.90
13231;DHT22;6681;53.254;10.398;2022-10-15T04:06:34;13.60;99.90
13231;DHT22;6681;53.254;10.398;2022-10-15T04:09:00;13.30;99.90
13231;DHT22;6681;53.254;10.398;2022-10-15T04:11:26;13.40;99.90
13231;DHT22;6681;53.254;10.398;2022-10-15T04:13:51;13.40;99.90
13231;DHT22;6681;53.254;10.398;2022-10-15T04:16:17;14.10;99.90
13231;DHT22;6681;53.254;10.398;2022-10-15T04:18:42;13.20;99.90
13231;DHT22;6681;53.254;10.398;2022-10-15T04:21:09;13.20;99.90
13231;DHT22;6681;53.254;10.398;2022-10-15T04:23:34;13.10;99.90
13231;DHT22;6681;53.254;10.398;2022-10-15T04:26:00;13.30;99.90
13231;DHT22;6681;53.254;10.398;2022-10-15T04:28:26;13.20;99.90
13231;DHT22;6681;53.254;10.398;2022-10-15T04:30:56;13.80;99.90
13231;DHT22;6681;53.254;10.398;2022-10-15T04:33:22;13.10;99.90
13231;DHT22;6681;53.254;10.398;2022-10-15T04:36:00;13.10;99.90
13231;DHT22;6681;53.254;10.398;2022-10-15T04:38:25;13.80;99.90
13231;DHT22;6681;53.254;10.398;2022-10-15T04:41:05;13.00;99.90
13231;DHT22;6681;53.254;10.398;2022-10-15T04:43:31;12.90;99.90
13231;DHT22;6681;53.254;10.398;2022-10-15T04:45:58;12.80;99.90
13231;DHT22;6681;53.254;10.398;2022-10-15T04:48:26;12.80;99.90
13231;DHT22;6681;53.254;10.398;2022-10-15T04:50:52;13.40;99.90
13231;DHT22;6681;53.254;10.398;2022-10-15T04:53:18;13.00;99.90
13231;DHT22;6681;53.254;10.398;2022-10-15T04:55:43;12.80;99.90
13231;DHT22;6681;53.254;10.398;2022-10-15T04:58:09;14.10;99.90
13231;DHT22;6681;53.254;10.398;2022-10-15T05:00:35;12.70;99.90
13231;DHT22;6681;53.254;10.398;2022-10-15T05:03:00;12.90;99.90
13231;DHT22;6681;53.254;10.398;2022-10-15T05:05:26;12.70;99.90
13231;DHT22;6681;53.254;10.398;2022-10-15T05:07:51;12.70;99.90
13231;DHT22;6681;53.254;10.398;2022-10-15T05:10:17;12.70;99.90
13231;DHT22;6681;53.254;10.398;2022-10-15T05:12:42;12.70;99.90
13231;DHT22;6681;53.254;10.398;2022-10-15T05:15:08;12.80;99.90
13231;DHT22;6681;53.254;10.398;2022-10-15T05:17:34;12.70;99.90
13231;DHT22;6681;53.254;10.398;2022-10-15T05:20:00;12.80;99.90
13231;DHT22;6681;53.254;10.398;2022-10-15T05:22:25;14.00;99.90
13231;DHT22;6681;53.254;10.398;2022-10-15T05:24:53;12.70;99.90
13231;DHT22;6681;53.254;10.398;2022-10-15T05:27:19;13.10;99.90
13231;DHT22;6681;53.254;10.398;2022-10-15T05:29:44;12.70;99.90
13231;DHT22;6681;53.254;10.398;2022-10-15T05:32:10;12.80;99.90
13231;DHT22;6681;53.254;10.398;2022-10-15T05:34:37;13.10;99.90
13231;DHT22;6681;53.254;10.398;2022-10-15T05:37:03;12.70;99.90
13231;DHT22;6681;53.254;10.398;2022-10-15T05:39:28;13.20;99.90
13231;DHT22;6681;53.254;10.398;2022-10-15T05:41:54;12.60;99.90
13231;DHT22;6681;53.254;10.398;2022-10-15T05:44:20;12.80;99.90
13231;DHT22;6681;53.254;10.398;2022-10-15T05:46:45;12.90;99.90
13231;DHT22;6681;53.254;10.398;2022-10-15T05:49:11;13.00;99.90
13231;DHT22;6681;53.254;10.398;2022-10-15T05:51:37;12.40;99.90
13231;DHT22;6681;53.254;10.398;2022-10-15T05:54:06;13.90;99.90
13231;DHT22;6681;53.254;10.398;2022-10-15T05:56:32;12.50;99.90
13231;DHT22;6681;53.254;10.398;2022-10-15T05:58:57;14.10;99.90
13231;DHT22;6681;53.254;10.398;2022-10-15T06:01:23;12.60;99.90
13231;DHT22;6681;53.254;10.398;2022-10-15T06:03:48;12.50;99.90
13231;DHT22;6681;53.254;10.398;2022-10-15T06:06:19;12.50;99.90
13231;DHT22;6681;53.254;10.398;2022-10-15T06:08:46;12.50;99.90
13231;DHT22;6681;53.254;10.398;2022-10-15T06:11:12;12.70;99.90
13231;DHT22;6681;53.254;10.398;2022-10-15T06:13:39;13.50;99.90
13231;DHT22;6681;53.254;10.398;2022-10-15T06:16:05;12.50;99.90
13231;DHT22;6681;53.254;10.398;2022-10-15T06:18:31;12.60;99.90
13231;DHT22;6681;53.254;10.398;2022-10-15T06:20:57;12.60;99.90
13231;DHT22;6681;53.254;10.398;2022-10-15T06:23:22;13.80;99.90
13231;DHT22;6681;53.254;10.398;2022-10-15T06:25:49;13.40;99.90
13231;DHT22;6681;53.254;10.398;2022-10-15T06:28:14;12.50;99.90
13231;DHT22;6681;53.254;10.398;2022-10-15T06:30:41;12.50;99.90
13231;DHT22;6681;53.254;10.398;2022-10-15T06:33:06;12.70;99.90
13231;DHT22;6681;53.254;10.398;2022-10-15T06:35:32;12.50;99.90
13231;DHT22;6681;53.254;10.398;2022-10-15T06:38:00;12.40;99.90
13231;DHT22;6681;53.254;10.398;2022-10-15T06:40:26;12.40;99.90
13231;DHT22;6681;53.254;10.398;2022-10-15T06:42:52;13.00;99.90
13231;DHT22;6681;53.254;10.398;2022-10-15T06:45:17;13.20;99.90
13231;DHT22;6681;53.254;10.398;2022-10-15T06:47:43;12.70;99.90
13231;DHT22;6681;53.254;10.398;2022-10-15T06:50:11;12.70;99.90
13231;DHT22;6681;53.254;10.398;2022-10-15T06:52:37;12.70;99.90
13231;DHT22;6681;53.254;10.398;2022-10-15T06:55:04;14.30;99.90
13231;DHT22;6681;53.254;10.398;2022-10-15T06:57:30;12.60;99.90
13231;DHT22;6681;53.254;10.398;2022-10-15T06:59:55;12.70;99.90
13231;DHT22;6681;53.254;10.398;2022-10-15T07:02:22;12.70;99.90
13231;DHT22;6681;53.254;10.398;2022-10-15T07:04:48;12.70;99.90
13231;DHT22;6681;53.254;10.398;2022-10-15T07:07:14;13.10;99.90
13231;DHT22;6681;53.254;10.398;2022-10-15T07:09:39;12.80;99.90
13231;DHT22;6681;53.254;10.398;2022-10-15T07:12:05;13.40;99.90
13231;DHT22;6681;53.254;10.398;2022-10-15T07:14:31;14.00;99.90
13231;DHT22;6681;53.254;10.398;2022-10-15T07:16:57;12.80;99.90
13231;DHT22;6681;53.254;10.398;2022-10-15T07:19:23;12.80;99.90
13231;DHT22;6681;53.254;10.398;2022-10-15T07:21:49;12.80;99.90
13231;DHT22;6681;53.254;10.398;2022-10-15T07:24:14;12.70;99.90
13231;DHT22;6681;53.254;10.398;2022-10-15T07:26:40;12.80;99.90
13231;DHT22;6681;53.254;10.398;2022-10-15T07:29:05;12.80;99.90
13231;DHT22;6681;53.254;10.398;2022-10-15T07:31:31;12.80;99.90
13231;DHT22;6681;53.254;10.398;2022-10-15T07:33:57;14.00;99.90
13231;DHT22;6681;53.254;10.398;2022-10-15T07:36:24;12.90;99.90
13231;DHT22;6681;53.254;10.398;2022-10-15T07:38:50;12.90;99.90
13231;DHT22;6681;53.254;10.398;2022-10-15T07:41:16;12.90;99.90
13231;DHT22;6681;53.254;10.398;2022-10-15T07:43:41;13.10;99.90
13231;DHT22;6681;53.254;10.398;2022-10-15T07:46:07;14.40;99.90
13231;DHT22;6681;53.254;10.398;2022-10-15T07:48:33;13.60;99.90
13231;DHT22;6681;53.254;10.398;2022-10-15T07:51:06;13.20;99.90
13231;DHT22;6681;53.254;10.398;2022-10-15T07:53:32;13.20;99.90
13231;DHT22;6681;53.254;10.398;2022-10-15T07:56:03;13.50;99.90
13231;DHT22;6681;53.254;10.398;2022-10-15T07:58:30;13.20;99.90
13231;DHT22;6681;53.254;10.398;2022-10-15T08:01:02;13.30;99.90
13231;DHT22;6681;53.254;10.398;2022-10-15T08:03:28;13.20;99.90
13231;DHT22;6681;53.254;10.398;2022-10-15T08:05:55;13.40;99.90
13231;DHT22;6681;53.254;10.398;2022-10-15T08:08:21;13.30;99.90
13231;DHT22;6681;53.254;10.398;2022-10-15T08:10:47;13.30;99.90
13231;DHT22;6681;53.254;10.398;2022-10-15T08:13:13;13.30;99.90
13231;DHT22;6681;53.254;10.398;2022-10-15T08:15:39;13.30;99.90
13231;DHT22;6681;53.254;10.398;2022-10-15T08:18:06;13.30;99.90
13231;DHT22;6681;53.254;10.398;2022-10-15T08:20:31;13.30;99.90
13231;DHT22;6681;53.254;10.398;2022-10-15T08:22:57;13.30;99.90
13231;DHT22;6681;53.254;10.398;2022-10-15T08:25:23;14.30;99.90
13231;DHT22;6681;53.254;10.398;2022-10-15T08:27:49;13.40;99.90
13231;DHT22;6681;53.254;10.398;2022-10-15T08:30:14;13.40;99.90
13231;DHT22;6681;53.254;10.398;2022-10-15T08:32:40;13.40;99.90
13231;DHT22;6681;53.254;10.398;2022-10-15T08:35:06;13.50;99.90
13231;DHT22;6681;53.254;10.398;2022-10-15T08:37:31;13.50;99.90
13231;DHT22;6681;53.254;10.398;2022-10-15T08:39:57;13.70;99.90
13231;DHT22;6681;53.254;10.398;2022-10-15T08:42:31;13.70;99.90
13231;DHT22;6681;53.254;10.398;2022-10-15T08:45:02;13.70;99.90
13231;DHT22;6681;53.254;10.398;2022-10-15T08:50:47;13.90;99.90
13231;DHT22;6681;53.254;10.398;2022-10-15T08:53:20;13.90;99.90
13231;DHT22;6681;53.254;10.398;2022-10-15T08:55:49;14.00;99.90
13231;DHT22;6681;53.254;10.398;2022-10-15T08:58:30;14.00;99.90
13231;DHT22;6681;53.254;10.398;2022-10-15T09:01:02;14.10;99.90
13231;DHT22;6681;53.254;10.398;2022-10-15T09:14:28;14.30;99.90
13231;DHT22;6681;53.254;10.398;2022-10-15T09:16:58;14.50;99.90
13231;DHT22;6681;53.254;10.398;2022-10-15T09:19:27;14.40;99.90
13231;DHT22;6681;53.254;10.398;2022-10-15T09:21:54;14.50;99.90
13231;DHT22;6681;53.254;10.398;2022-10-15T09:24:27;14.50;99.90
13231;DHT22;6681;53.254;10.398;2022-10-15T12:29:47;18.00;99.90
13231;DHT22;6681;53.254;10.398;2022-10-15T12:32:36;18.00;99.90
13231;DHT22;6681;53.254;10.398;2022-10-15T12:35:05;18.00;99.90
13231;DHT22;6681;53.254;10.398;2022-10-15T12:37:44;18.00;99.90
13231;DHT22;6681;53.254;10.398;2022-10-15T12:40:31;18.10;99.90
13231;DHT22;6681;53.254;10.398;2022-10-15T12:43:02;18.10;99.90
13231;DHT22;6681;53.254;10.398;2022-10-15T12:45:38;18.20;99.90
13231;DHT22;6681;53.254;10.398;2022-10-15T12:50:34;18.20;99.90
13231;DHT22;6681;53.254;10.398;2022-10-15T12:58:36;18.10;99.90
13231;DHT22;6681;53.254;10.398;2022-10-15T13:11:46;18.10;99.90
13231;DHT22;6681;53.254;10.398;2022-10-15T13:14:33;18.10;99.90
13231;DHT22;6681;53.254;10.398;2022-10-15T13:17:05;18.20;99.90
13231;DHT22;6681;53.254;10.398;2022-10-15T13:19:39;18.40;99.90
13231;DHT22;6681;53.254;10.398;2022-10-15T13:22:18;18.30;99.90
13231;DHT22;6681;53.254;10.398;2022-10-15T13:24:44;18.00;99.90
13231;DHT22;6681;53.254;10.398;2022-10-15T13:27:22;18.00;99.90
13231;DHT22;6681;53.254;10.398;2022-10-15T13:30:20;17.90;99.90
13231;DHT22;6681;53.254;10.398;2022-10-15T13:32:47;17.80;99.90
13231;DHT22;6681;53.254;10.398;2022-10-15T13:35:30;17.80;99.90
13231;DHT22;6681;53.254;10.398;2022-10-15T13:37:57;17.70;99.90
13231;DHT22;6681;53.254;10.398;2022-10-15T13:40:26;17.70;99.90
13231;DHT22;6681;53.254;10.398;2022-10-15T13:42:59;17.60;99.90
13231;DHT22;6681;53.254;10.398;2022-10-15T13:45:26;17.70;99.90
13231;DHT22;6681;53.254;10.398;2022-10-15T13:47:52;17.70;99.90
13231;DHT22;6681;53.254;10.398;2022-10-15T13:55:30;17.80;99.90
13231;DHT22;6681;53.254;10.398;2022-10-15T14:00:55;17.90;99.90
13231;DHT22;6681;53.254;10.398;2022-10-15T14:03:29;17.90;99.90
13231;DHT22;6681;53.254;10.398;2022-10-15T14:05:57;18.10;99.90
13231;DHT22;6681;53.254;10.398;2022-10-15T14:08:28;18.10;99.90
13231;DHT22;6681;53.254;10.398;2022-10-15T14:10:58;18.20;99.90
13231;DHT22;6681;53.254;10.398;2022-10-15T14:13:25;18.20;99.90
13231;DHT22;6681;53.254;10.398;2022-10-15T14:18:44;18.20;99.90
13231;DHT22;6681;53.254;10.398;2022-10-15T14:21:17;18.20;99.90
13231;DHT22;6681;53.254;10.398;2022-10-15T14:23:44;18.20;99.90
13231;DHT22;6681;53.254;10.398;2022-10-15T14:26:11;18.10;99.90
13231;DHT22;6681;53.254;10.398;2022-10-15T14:28:37;18.10;99.90
13231;DHT22;6681;53.254;10.398;2022-10-15T14:31:05;18.00;99.90
13231;DHT22;6681;53.254;10.398;2022-10-15T14:36:12;17.90;99.90
13231;DHT22;6681;53.254;10.398;2022-10-15T14:38:40;18.00;99.90
13231;DHT22;6681;53.254;10.398;2022-10-15T14:41:29;18.00;99.90
13231;DHT22;6681;53.254;10.398;2022-10-15T14:46:43;17.90;99.90
13231;DHT22;6681;53.254;10.398;2022-10-15T14:49:22;17.90;99.90
13231;DHT22;6681;53.254;10.398;2022-10-15T14:52:15;17.90;99.90
13231;DHT22;6681;53.254;10.398;2022-10-15T14:54:44;17.90;99.90
13231;DHT22;6681;53.254;10.398;2022-10-15T14:57:22;17.80;99.90
13231;DHT22;6681;53.254;10.398;2022-10-15T14:59:52;17.80;99.90
13231;DHT22;6681;53.254;10.398;2022-10-15T15:02:19;17.70;99.90
13231;DHT22;6681;53.254;10.398;2022-10-15T15:05:05;17.70;99.90
13231;DHT22;6681;53.254;10.398;2022-10-15T15:07:31;17.60;99.90
13231;DHT22;6681;53.254;10.398;2022-10-15T15:09:56;17.50;99.90
13231;DHT22;6681;53.254;10.398;2022-10-15T15:12:24;17.50;99.90
13231;DHT22;6681;53.254;10.398;2022-10-15T15:14:50;17.50;99.90
13231;DHT22;6681;53.254;10.398;2022-10-15T15:17:22;17.50;99.90
13231;DHT22;6681;53.254;10.398;2022-10-15T15:19:50;17.50;99.90
13231;DHT22;6681;53.254;10.398;2022-10-15T15:22:35;17.40;99.90
13231;DHT22;6681;53.254;10.398;2022-10-15T15:25:09;17.50;99.90
13231;DHT22;6681;53.254;10.398;2022-10-15T15:27:37;17.50;99.90
13231;DHT22;6681;53.254;10.398;2022-10-15T15:30:05;17.50;99.90
13231;DHT22;6681;53.254;10.398;2022-10-15T15:32:32;17.50;99.90
13231;DHT22;6681;53.254;10.398;2022-10-15T15:34:58;17.40;99.90
13231;DHT22;6681;53.254;10.398;2022-10-15T15:37:24;17.40;99.90
13231;DHT22;6681;53.254;10.398;2022-10-15T15:39:50;17.40;99.90
13231;DHT22;6681;53.254;10.398;2022-10-15T15:42:19;17.40;99.90
13231;DHT22;6681;53.254;10.398;2022-10-15T15:44:45;17.30;99.90
13231;DHT22;6681;53.254;10.398;2022-10-15T15:47:11;17.80;99.90
13231;DHT22;6681;53.254;10.398;2022-10-15T15:49:37;17.20;99.90
13231;DHT22;6681;53.254;10.398;2022-10-15T15:52:05;17.20;99.90
13231;DHT22;6681;53.254;10.398;2022-10-15T15:54:30;17.10;99.90
13231;DHT22;6681;53.254;10.398;2022-10-15T15:56:56;17.10;99.90
13231;DHT22;6681;53.254;10.398;2022-10-15T15:59:22;17.30;99.90
13231;DHT22;6681;53.254;10.398;2022-10-15T16:01:47;17.10;99.90
13231;DHT22;6681;53.254;10.398;2022-10-15T16:04:13;17.10;99.90
13231;DHT22;6681;53.254;10.398;2022-10-15T16:06:39;17.00;99.90
13231;DHT22;6681;53.254;10.398;2022-10-15T16:09:05;17.00;99.90
13231;DHT22;6681;53.254;10.398;2022-10-15T16:11:31;17.00;99.90
13231;DHT22;6681;53.254;10.398;2022-10-15T16:13:57;16.90;99.90
13231;DHT22;6681;53.254;10.398;2022-10-15T16:16:24;16.90;99.90
13231;DHT22;6681;53.254;10.398;2022-10-15T16:18:50;16.90;99.90
13231;DHT22;6681;53.254;10.398;2022-10-15T16:21:23;16.90;99.90
13231;DHT22;6681;53.254;10.398;2022-10-15T16:23:49;16.90;99.90
13231;DHT22;6681;53.254;10.398;2022-10-15T16:26:15;16.80;99.90
13231;DHT22;6681;53.254;10.398;2022-10-15T16:28:41;16.80;99.90
13231;DHT22;6681;53.254;10.398;2022-10-15T16:31:14;16.90;99.90
13231;DHT22;6681;53.254;10.398;2022-10-15T16:33:40;16.90;99.90
13231;DHT22;6681;53.254;10.398;2022-10-15T16:36:06;16.90;99.90
13231;DHT22;6681;53.254;10.398;2022-10-15T16:38:31;16.90;99.90
13231;DHT22;6681;53.254;10.398;2022-10-15T16:40:57;16.90;99.90
13231;DHT22;6681;53.254;10.398;2022-10-15T16:43:22;16.80;99.90
13231;DHT22;6681;53.254;10.398;2022-10-15T16:45:56;16.80;99.90
13231;DHT22;6681;53.254;10.398;2022-10-15T16:48:23;16.70;99.90
13231;DHT22;6681;53.254;10.398;2022-10-15T16:51:06;16.70;99.90
13231;DHT22;6681;53.254;10.398;2022-10-15T16:53:34;16.70;99.90
13231;DHT22;6681;53.254;10.398;2022-10-15T16:56:06;16.80;99.90
13231;DHT22;6681;53.254;10.398;2022-10-15T16:58:32;16.70;99.90
13231;DHT22;6681;53.254;10.398;2022-10-15T17:01:03;16.70;99.90
13231;DHT22;6681;53.254;10.398;2022-10-15T17:03:29;16.70;99.90
13231;DHT22;6681;53.254;10.398;2022-10-15T17:06:01;16.60;99.90
13231;DHT22;6681;53.254;10.398;2022-10-15T17:08:53;16.60;99.90
13231;DHT22;6681;53.254;10.398;2022-10-15T17:11:22;16.70;99.90
13231;DHT22;6681;53.254;10.398;2022-10-15T17:13:49;16.60;99.90
13231;DHT22;6681;53.254;10.398;2022-10-15T17:16:24;16.60;99.90
13231;DHT22;6681;53.254;10.398;2022-10-15T17:18:50;16.70;99.90
13231;DHT22;6681;53.254;10.398;2022-10-15T17:21:22;16.60;99.90
13231;DHT22;6681;53.254;10.398;2022-10-15T17:23:50;16.60;99.90
13231;DHT22;6681;53.254;10.398;2022-10-15T17:26:18;16.60;99.90
13231;DHT22;6681;53.254;10.398;2022-10-15T17:28:45;16.50;99.90
13231;DHT22;6681;53.254;10.398;2022-10-15T17:31:13;16.50;99.90
13231;DHT22;6681;53.254;10.398;2022-10-15T17:33:41;16.40;99.90
13231;DHT22;6681;53.254;10.398;2022-10-15T17:36:12;16.40;99.90
13231;DHT22;6681;53.254;10.398;2022-10-15T17:38:38;16.30;99.90
13231;DHT22;6681;53.254;10.398;2022-10-15T17:41:09;16.30;99.90
13231;DHT22;6681;53.254;10.398;2022-10-15T17:43:35;16.20;99.90
13231;DHT22;6681;53.254;10.398;2022-10-15T17:46:03;16.20;99.90
13231;DHT22;6681;53.254;10.398;2022-10-15T17:48:30;16.10;99.90
13231;DHT22;6681;53.254;10.398;2022-10-15T17:50:58;16.10;99.90
13231;DHT22;6681;53.254;10.398;2022-10-15T17:53:24;16.10;99.90
13231;DHT22;6681;53.254;10.398;2022-10-15T17:55:49;16.10;99.90
13231;DHT22;6681;53.254;10.398;2022-10-15T17:58:15;16.10;99.90
13231;DHT22;6681;53.254;10.398;2022-10-15T18:00:42;16.00;99.90
13231;DHT22;6681;53.254;10.398;2022-10-15T18:03:09;16.00;99.90
13231;DHT22;6681;53.254;10.398;2022-10-15T18:05:35;16.00;99.90
13231;DHT22;6681;53.254;10.398;2022-10-15T18:08:00;16.10;99.90
13231;DHT22;6681;53.254;10.398;2022-10-15T18:10:28;16.10;99.90
13231;DHT22;6681;53.254;10.398;2022-10-15T18:12:54;16.00;99.90
13231;DHT22;6681;53.254;10.398;2022-10-15T18:15:21;16.00;99.90
13231;DHT22;6681;53.254;10.398;2022-10-15T18:17:47;15.90;99.90
13231;DHT22;6681;53.254;10.398;2022-10-15T18:20:13;16.00;99.90
13231;DHT22;6681;53.254;10.398;2022-10-15T18:22:39;16.00;99.90
13231;DHT22;6681;53.254;10.398;2022-10-15T18:25:05;16.00;99.90
13231;DHT22;6681;53.254;10.398;2022-10-15T18:27:30;16.00;99.90
13231;DHT22;6681;53.254;10.398;2022-10-15T18:29:56;15.90;99.90
13231;DHT22;6681;53.254;10.398;2022-10-15T18:32:21;15.90;99.90
13231;DHT22;6681;53.254;10.398;2022-10-15T18:34:47;15.90;99.90
13231;DHT22;6681;53.254;10.398;2022-10-15T18:37:13;15.90;99.90
13231;DHT22;6681;53.254;10.398;2022-10-15T18:39:38;16.80;99.90
13231;DHT22;6681;53.254;10.398;2022-10-15T18:42:04;16.10;99.90
13231;DHT22;6681;53.254;10.398;2022-10-15T18:44:29;15.80;99.90
13231;DHT22;6681;53.254;10.398;2022-10-15T18:46:56;15.80;99.90
13231;DHT22;6681;53.254;10.398;2022-10-15T18:49:22;15.80;99.90
13231;DHT22;6681;53.254;10.398;2022-10-15T18:51:47;15.90;99.90
13231;DHT22;6681;53.254;10.398;2022-10-15T18:54:17;15.70;99.90
13231;DHT22;6681;53.254;10.398;2022-10-15T18:56:44;15.70;99.90
13231;DHT22;6681;53.254;10.398;2022-10-15T18:59:10;15.70;99.90
13231;DHT22;6681;53.254;10.398;2022-10-15T19:01:41;15.70;99.90
13231;DHT22;6681;53.254;10.398;2022-10-15T19:04:18;15.70;99.90
13231;DHT22;6681;53.254;10.398;2022-10-15T19:06:46;15.60;99.90
13231;DHT22;6681;53.254;10.398;2022-10-15T19:09:15;15.60;99.90
13231;DHT22;6681;53.254;10.398;2022-10-15T19:11:44;15.70;99.90
13231;DHT22;6681;53.254;10.398;2022-10-15T19:14:10;15.70;99.90
13231;DHT22;6681;53.254;10.398;2022-10-15T19:16:36;15.70;99.90
13231;DHT22;6681;53.254;10.398;2022-10-15T19:19:03;16.10;99.90
13231;DHT22;6681;53.254;10.398;2022-10-15T19:21:29;15.70;99.90
13231;DHT22;6681;53.254;10.398;2022-10-15T19:23:56;15.70;99.90
13231;DHT22;6681;53.254;10.398;2022-10-15T19:26:21;15.60;99.90
13231;DHT22;6681;53.254;10.398;2022-10-15T19:28:47;15.60;99.90
13231;DHT22;6681;53.254;10.398;2022-10-15T19:31:26;15.60;99.90
13231;DHT22;6681;53.254;10.398;2022-10-15T19:33:53;15.50;99.90
13231;DHT22;6681;53.254;10.398;2022-10-15T19:36:24;17.90;99.90
13231;DHT22;6681;53.254;10.398;2022-10-15T19:38:50;15.50;99.90
13231;DHT22;6681;53.254;10.398;2022-10-15T19:41:16;15.60;99.90
13231;DHT22;6681;53.254;10.398;2022-10-15T19:43:42;15.60;99.90
13231;DHT22;6681;53.254;10.398;2022-10-15T19:46:08;15.60;99.90
13231;DHT22;6681;53.254;10.398;2022-10-15T19:48:34;16.00;99.90
13231;DHT22;6681;53.254;10.398;2022-10-15T19:51:01;15.60;99.90
13231;DHT22;6681;53.254;10.398;2022-10-15T19:53:27;15.50;99.90
13231;DHT22;6681;53.254;10.398;2022-10-15T19:56:01;15.50;99.90
13231;DHT22;6681;53.254;10.398;2022-10-15T19:58:28;15.60;99.90
13231;DHT22;6681;53.254;10.398;2022-10-15T20:00:57;15.50;99.90